Time;durP1;ratioP1;P1;durP2;ratioP2;P2;SDS_P1;SDS_P2;PMS_P1;PMS_P2;Temp;Humidity;BMP_temperature;BMP_pressure;BME280_temperature;BME280_humidity;BME280_pressure;Samples;Min_cycle;Max_cycle;Signal;HPM_P1;HPM_P2
2023/09/01 00:01:03;;;;;;;19.85;11.55;;;;;;;;;;5019861;28;20099;-63
2023/09/01 00:03:29;;;;;;;18.05;11.07;;;;;;;;;;5013611;28;20060;-61
2023/09/01 00:05:58;;;;;;;17.77;11.52;;;;;;;;;;5016441;28;20042;-63
2023/09/01 00:08:25;;;;;;;19.13;11.73;;;;;;;;;;5017337;28;20045;-62
2023/09/01 00:10:52;;;;;;;19.70;11.77;;;;;;;;;;5025621;28;20041;-62
2023/09/01 00:13:18;;;;;;;21.95;12.43;;;;;;;;;;5034016;28;20049;-59
2023/09/01 00:15:45;;;;;;;20.92;12.15;;;;;;;;;;5009969;28;20056;-62
2023/09/01 00:18:11;;;;;;;19.45;12.00;;;;;;;;;;5009712;28;20750;-62
2023/09/01 00:20:38;;;;;;;20.38;12.07;;;;;;;;;;5007000;28;20056;-62
2023/09/01 00:23:06;;;;;;;19.92;11.93;;;;;;;;;;5012879;28;20045;-62
2023/09/01 00:25:32;;;;;;;21.73;11.90;;;;;;;;;;5027250;28;20034;-63
2023/09/01 00:27:59;;;;;;;21.55;12.90;;;;;;;;;;5013734;28;20038;-63
2023/09/01 00:30:31;;;;;;;22.83;12.38;;;;;;;;;;5026305;28;20041;-62
2023/09/01 00:32:58;;;;;;;24.65;12.48;;;;;;;;;;5019665;28;20597;-62
2023/09/01 00:35:24;;;;;;;18.30;11.80;;;;;;;;;;5042648;28;20239;-66
2023/09/01 00:37:51;;;;;;;20.75;12.18;;;;;;;;;;5012755;28;20049;-61
2023/09/01 00:40:18;;;;;;;21.02;12.90;;;;;;;;;;5013208;28;20540;-61
2023/09/01 00:42:45;;;;;;;23.08;12.30;;;;;;;;;;5028696;28;20044;-61
2023/09/01 00:45:12;;;;;;;20.73;12.80;;;;;;;;;;5021236;28;20084;-61
2023/09/01 00:47:39;;;;;;;24.77;13.23;;;;;;;;;;5014221;28;20038;-61
2023/09/01 00:50:07;;;;;;;21.33;12.95;;;;;;;;;;5014388;28;20083;-61
2023/09/01 00:52:35;;;;;;;19.67;12.13;;;;;;;;;;5029863;28;20490;-62
2023/09/01 00:55:02;;;;;;;23.00;13.80;;;;;;;;;;5003562;28;20061;-61
2023/09/01 00:57:28;;;;;;;22.00;13.32;;;;;;;;;;5007509;28;20029;-62
2023/09/01 00:59:55;;;;;;;21.40;12.70;;;;;;;;;;5017362;28;20048;-61
2023/09/01 01:02:21;;;;;;;20.55;13.07;;;;;;;;;;5017148;28;20434;-62
2023/09/01 01:04:48;;;;;;;24.38;14.30;;;;;;;;;;5038912;28;20519;-62
2023/09/01 01:07:15;;;;;;;26.08;13.63;;;;;;;;;;5032085;28;21472;-61
2023/09/01 01:09:49;;;;;;;21.63;13.10;;;;;;;;;;5031904;28;20036;-62
2023/09/01 01:12:36;;;;;;;27.25;13.80;;;;;;;;;;5033718;28;20136;-62
2023/09/01 01:15:09;;;;;;;27.80;14.70;;;;;;;;;;5032422;28;20677;-62
2023/09/01 01:17:39;;;;;;;23.05;14.05;;;;;;;;;;5032105;28;20360;-63
2023/09/01 01:20:15;;;;;;;27.73;15.10;;;;;;;;;;5032028;28;20508;-62
2023/09/01 01:22:43;;;;;;;28.27;15.20;;;;;;;;;;5032787;28;20048;-60
2023/09/01 01:25:10;;;;;;;27.80;15.10;;;;;;;;;;5033547;28;20052;-61
2023/09/01 01:27:38;;;;;;;24.70;14.52;;;;;;;;;;5032407;28;20045;-63
2023/09/01 01:30:07;;;;;;;25.55;14.77;;;;;;;;;;5033574;28;20096;-62
2023/09/01 01:32:35;;;;;;;21.13;13.63;;;;;;;;;;5023855;28;20132;-64
2023/09/01 01:35:17;;;;;;;23.80;14.75;;;;;;;;;;5013029;28;20406;-62
2023/09/01 01:37:53;;;;;;;35.17;15.95;;;;;;;;;;5020228;28;20033;-62
2023/09/01 01:40:21;;;;;;;29.20;15.35;;;;;;;;;;5044283;28;20052;-63
2023/09/01 01:42:49;;;;;;;29.65;15.38;;;;;;;;;;5028356;28;20355;-63
2023/09/01 01:45:20;;;;;;;27.50;15.18;;;;;;;;;;5010891;28;20038;-62
2023/09/01 01:47:51;;;;;;;27.40;15.73;;;;;;;;;;5010175;28;20041;-62
2023/09/01 01:50:18;;;;;;;24.63;14.73;;;;;;;;;;5009998;28;20350;-61
2023/09/01 01:52:45;;;;;;;24.20;14.93;;;;;;;;;;5010613;28;20038;-62
2023/09/01 01:55:11;;;;;;;27.73;16.60;;;;;;;;;;5018412;28;20365;-64
2023/09/01 01:57:38;;;;;;;25.23;15.73;;;;;;;;;;5019068;28;20747;-63
2023/09/01 02:00:11;;;;;;;27.50;15.88;;;;;;;;;;5028190;28;20725;-63
2023/09/01 02:02:38;;;;;;;28.15;15.63;;;;;;;;;;5013304;28;20037;-64
2023/09/01 02:05:06;;;;;;;31.80;16.45;;;;;;;;;;5014080;28;20075;-64
2023/09/01 02:07:33;;;;;;;27.98;16.52;;;;;;;;;;5012875;28;20465;-62
2023/09/01 02:10:00;;;;;;;27.10;15.80;;;;;;;;;;5017594;28;20505;-63
2023/09/01 02:12:26;;;;;;;28.27;16.60;;;;;;;;;;5015423;28;20112;-64
2023/09/01 02:14:53;;;;;;;27.90;16.40;;;;;;;;;;5011968;28;20037;-62
2023/09/01 02:17:20;;;;;;;25.33;16.27;;;;;;;;;;5010341;28;20041;-63
2023/09/01 02:19:46;;;;;;;27.63;15.57;;;;;;;;;;5010297;28;20080;-62
2023/09/01 02:22:13;;;;;;;27.13;16.75;;;;;;;;;;5018973;28;20068;-60
2023/09/01 02:24:39;;;;;;;27.13;15.73;;;;;;;;;;5021928;28;20227;-62
2023/09/01 02:27:06;;;;;;;29.02;17.38;;;;;;;;;;5014506;28;20048;-62
2023/09/01 02:29:33;;;;;;;28.75;16.58;;;;;;;;;;5011773;28;20057;-60
2023/09/01 02:31:59;;;;;;;26.92;16.88;;;;;;;;;;5012551;28;20140;-60
2023/09/01 02:34:26;;;;;;;31.20;17.88;;;;;;;;;;5012021;28;20101;-62
2023/09/01 02:36:53;;;;;;;28.40;17.67;;;;;;;;;;5019896;28;20537;-62
2023/09/01 02:39:20;;;;;;;31.45;17.38;;;;;;;;;;5020549;28;20179;-64
2023/09/01 02:41:46;;;;;;;31.35;17.50;;;;;;;;;;5012415;28;20463;-62
2023/09/01 02:44:13;;;;;;;30.17;17.38;;;;;;;;;;5012943;28;20048;-62
2023/09/01 02:46:39;;;;;;;28.05;16.77;;;;;;;;;;5011139;28;20045;-62
2023/09/01 02:49:06;;;;;;;29.30;17.38;;;;;;;;;;5020579;28;20175;-64
2023/09/01 02:51:33;;;;;;;31.27;17.50;;;;;;;;;;5010338;28;20425;-64
2023/09/01 02:53:59;;;;;;;30.85;18.30;;;;;;;;;;5015244;28;20049;-62
2023/09/01 02:56:26;;;;;;;32.38;18.63;;;;;;;;;;5022103;28;20045;-63
2023/09/01 02:58:52;;;;;;;38.50;19.13;;;;;;;;;;5011408;28;20494;-61
2023/09/01 03:01:19;;;;;;;33.17;18.65;;;;;;;;;;5038742;28;20532;-62
2023/09/01 03:03:45;;;;;;;34.15;19.80;;;;;;;;;;5009186;28;20055;-63
2023/09/01 03:06:12;;;;;;;33.70;19.73;;;;;;;;;;5011650;28;20168;-61
2023/09/01 03:08:39;;;;;;;32.35;18.50;;;;;;;;;;5010085;28;20498;-60
2023/09/01 03:11:06;;;;;;;29.77;19.50;;;;;;;;;;5010773;28;20053;-61
2023/09/01 03:13:33;;;;;;;32.47;19.55;;;;;;;;;;5009566;28;20042;-62
2023/09/01 03:15:59;;;;;;;37.47;21.25;;;;;;;;;;5011125;28;20050;-62
2023/09/01 03:18:26;;;;;;;33.65;19.42;;;;;;;;;;5010427;28;20049;-63
2023/09/01 03:20:56;;;;;;;33.70;19.83;;;;;;;;;;5015205;28;20049;-64
2023/09/01 03:23:22;;;;;;;36.78;20.35;;;;;;;;;;5014122;28;20051;-62
2023/09/01 03:25:56;;;;;;;36.45;20.10;;;;;;;;;;5010760;28;20045;-62
2023/09/01 03:28:22;;;;;;;36.42;20.63;;;;;;;;;;5020111;28;20037;-62
2023/09/01 03:30:49;;;;;;;34.30;20.88;;;;;;;;;;5011181;28;21334;-61
2023/09/01 03:33:16;;;;;;;34.60;19.95;;;;;;;;;;5011669;28;20049;-61
2023/09/01 03:35:43;;;;;;;35.45;21.20;;;;;;;;;;5010095;28;20132;-62
2023/09/01 03:38:10;;;;;;;35.03;19.92;;;;;;;;;;5009469;28;20060;-63
2023/09/01 03:40:37;;;;;;;32.20;19.55;;;;;;;;;;5019090;28;20083;-59
2023/09/01 03:43:03;;;;;;;33.90;19.60;;;;;;;;;;5008572;28;20073;-62
2023/09/01 03:45:30;;;;;;;34.65;20.38;;;;;;;;;;5015560;28;20161;-62
2023/09/01 03:47:57;;;;;;;36.03;19.85;;;;;;;;;;5017719;28;20679;-62
2023/09/01 03:50:23;;;;;;;30.98;18.55;;;;;;;;;;5018549;28;20044;-62
2023/09/01 03:52:50;;;;;;;31.75;18.00;;;;;;;;;;5031461;28;20037;-62
2023/09/01 03:55:17;;;;;;;33.03;18.80;;;;;;;;;;5031926;28;20551;-61
2023/09/01 03:57:44;;;;;;;37.10;19.75;;;;;;;;;;5019921;28;20482;-62
2023/09/01 04:00:11;;;;;;;32.67;19.42;;;;;;;;;;5019724;28;20052;-61
2023/09/01 04:02:38;;;;;;;32.47;19.15;;;;;;;;;;5029858;28;20110;-62
2023/09/01 04:05:05;;;;;;;30.00;18.35;;;;;;;;;;5046781;28;20370;-61
2023/09/01 04:07:31;;;;;;;31.08;18.65;;;;;;;;;;5031814;28;20776;-61
2023/09/01 04:09:58;;;;;;;33.38;19.65;;;;;;;;;;5031674;28;20630;-63
2023/09/01 04:12:25;;;;;;;33.22;19.92;;;;;;;;;;5013195;28;20041;-61
2023/09/01 04:14:51;;;;;;;33.42;20.40;;;;;;;;;;5010749;28;20080;-62
2023/09/01 04:17:18;;;;;;;36.33;20.90;;;;;;;;;;5010236;28;20041;-64
2023/09/01 04:19:48;;;;;;;33.30;20.00;;;;;;;;;;5009364;28;20045;-62
2023/09/01 04:22:14;;;;;;;33.35;20.35;;;;;;;;;;5010563;28;20049;-63
2023/09/01 04:24:41;;;;;;;35.53;20.80;;;;;;;;;;5017441;28;20145;-60
2023/09/01 04:27:08;;;;;;;35.33;22.08;;;;;;;;;;5007165;28;20041;-61
2023/09/01 04:29:36;;;;;;;36.35;22.85;;;;;;;;;;5011972;28;20049;-63
2023/09/01 04:32:03;;;;;;;35.63;22.02;;;;;;;;;;5016586;28;20454;-63
2023/09/01 04:34:30;;;;;;;38.65;23.10;;;;;;;;;;5016496;28;20379;-61
2023/09/01 04:36:56;;;;;;;36.75;21.52;;;;;;;;;;5009499;28;21415;-62
2023/09/01 04:39:23;;;;;;;35.17;22.48;;;;;;;;;;5009586;28;20379;-62
2023/09/01 04:41:50;;;;;;;37.90;23.33;;;;;;;;;;5017722;28;20091;-62
2023/09/01 04:44:16;;;;;;;37.10;22.98;;;;;;;;;;5017889;28;20073;-61
2023/09/01 04:46:43;;;;;;;38.70;22.52;;;;;;;;;;5009594;28;20045;-62
2023/09/01 04:49:09;;;;;;;41.40;23.00;;;;;;;;;;5019579;28;20048;-60
2023/09/01 04:51:36;;;;;;;40.20;22.90;;;;;;;;;;5008781;28;21512;-62
2023/09/01 04:54:03;;;;;;;43.42;24.08;;;;;;;;;;5016336;28;20094;-63
2023/09/01 04:56:30;;;;;;;41.42;23.17;;;;;;;;;;5010869;28;20033;-61
2023/09/01 04:58:57;;;;;;;35.28;21.77;;;;;;;;;;5015363;28;20044;-63
2023/09/01 05:01:24;;;;;;;39.00;23.58;;;;;;;;;;5009329;28;20509;-63
2023/09/01 05:03:50;;;;;;;38.13;22.67;;;;;;;;;;5007473;28;20071;-62
2023/09/01 05:06:17;;;;;;;39.03;22.15;;;;;;;;;;5008529;28;20099;-62
2023/09/01 05:08:44;;;;;;;39.72;23.75;;;;;;;;;;5021720;28;20416;-63
2023/09/01 05:11:10;;;;;;;39.50;23.10;;;;;;;;;;5016770;28;20037;-62
2023/09/01 05:13:37;;;;;;;38.70;23.55;;;;;;;;;;5010666;28;20047;-64
2023/09/01 05:16:07;;;;;;;39.13;22.08;;;;;;;;;;5014313;28;20034;-64
2023/09/01 05:18:33;;;;;;;37.65;23.13;;;;;;;;;;5043053;28;20041;-61
2023/09/01 05:21:00;;;;;;;34.53;21.33;;;;;;;;;;5014462;28;20539;-63
2023/09/01 05:23:31;;;;;;;36.15;22.60;;;;;;;;;;5013621;28;20045;-63
2023/09/01 05:25:57;;;;;;;34.45;21.42;;;;;;;;;;5023837;28;20033;-62
2023/09/01 05:28:24;;;;;;;36.83;21.60;;;;;;;;;;5013339;28;20064;-63
2023/09/01 05:30:50;;;;;;;37.90;21.80;;;;;;;;;;5022160;28;20057;-61
2023/09/01 05:33:17;;;;;;;37.85;21.50;;;;;;;;;;5014476;28;20176;-63
2023/09/01 05:35:44;;;;;;;38.22;21.58;;;;;;;;;;5012056;28;20375;-62
2023/09/01 05:38:10;;;;;;;41.50;22.67;;;;;;;;;;5018730;28;20144;-58
2023/09/01 05:40:37;;;;;;;35.72;21.00;;;;;;;;;;5008028;28;20397;-59
2023/09/01 05:43:04;;;;;;;35.78;21.98;;;;;;;;;;5013214;28;20041;-60
2023/09/01 05:45:31;;;;;;;34.50;21.25;;;;;;;;;;5019842;28;20033;-61
2023/09/01 05:47:57;;;;;;;36.30;21.85;;;;;;;;;;5029291;28;20052;-60
2023/09/01 05:50:24;;;;;;;38.30;21.25;;;;;;;;;;5020817;28;20072;-62
2023/09/01 05:52:50;;;;;;;38.08;21.55;;;;;;;;;;5019863;28;20099;-62
2023/09/01 05:55:17;;;;;;;35.58;20.20;;;;;;;;;;5011632;28;20041;-62
2023/09/01 05:57:43;;;;;;;35.25;20.85;;;;;;;;;;5008286;28;20052;-63
2023/09/01 06:00:30;;;;;;;36.10;22.10;;;;;;;;;;5007757;28;20053;-64
2023/09/01 06:02:57;;;;;;;35.70;21.20;;;;;;;;;;5030262;28;20037;-62
2023/09/01 06:05:24;;;;;;;35.35;20.55;;;;;;;;;;5028203;28;20041;-62
2023/09/01 06:07:50;;;;;;;32.30;18.00;;;;;;;;;;5027710;28;20103;-63
2023/09/01 06:10:17;;;;;;;31.05;18.00;;;;;;;;;;5029419;28;20553;-62
2023/09/01 06:12:43;;;;;;;30.77;16.92;;;;;;;;;;5012641;28;20052;-62
2023/09/01 06:15:10;;;;;;;27.50;16.15;;;;;;;;;;5029462;28;20048;-63
2023/09/01 06:17:40;;;;;;;25.50;14.55;;;;;;;;;;5029038;28;20040;-62
2023/09/01 06:20:07;;;;;;;24.67;14.82;;;;;;;;;;5030509;28;20041;-62
2023/09/01 06:22:34;;;;;;;25.00;13.88;;;;;;;;;;5030113;28;20535;-61
2023/09/01 06:25:00;;;;;;;23.63;13.68;;;;;;;;;;5031161;28;20037;-61
2023/09/01 06:27:27;;;;;;;20.05;12.57;;;;;;;;;;5028746;28;20061;-62
2023/09/01 06:29:56;;;;;;;20.33;12.27;;;;;;;;;;5027714;28;20610;-62
2023/09/01 06:32:23;;;;;;;21.30;11.75;;;;;;;;;;5027630;28;20461;-64
2023/09/01 06:34:50;;;;;;;20.25;11.95;;;;;;;;;;5011011;28;20092;-62
2023/09/01 06:37:16;;;;;;;19.63;12.25;;;;;;;;;;5028281;28;20041;-61
2023/09/01 06:39:43;;;;;;;18.27;11.00;;;;;;;;;;5030843;28;20048;-62
2023/09/01 06:42:10;;;;;;;18.90;10.40;;;;;;;;;;5031532;28;20044;-62
2023/09/01 06:44:36;;;;;;;18.63;10.73;;;;;;;;;;5031159;28;20049;-62
2023/09/01 06:47:03;;;;;;;16.88;10.15;;;;;;;;;;5025282;28;20069;-64
2023/09/01 06:49:30;;;;;;;18.40;10.55;;;;;;;;;;5011350;28;20038;-61
2023/09/01 06:51:58;;;;;;;15.68;9.98;;;;;;;;;;5010926;28;20044;-62
2023/09/01 06:54:25;;;;;;;16.77;10.25;;;;;;;;;;5010580;28;20047;-64
2023/09/01 06:56:51;;;;;;;18.33;10.68;;;;;;;;;;5012141;28;20116;-63
2023/09/01 06:59:18;;;;;;;20.80;10.52;;;;;;;;;;5015444;28;20536;-60
2023/09/01 07:01:45;;;;;;;17.98;9.95;;;;;;;;;;5018503;28;20289;-62
2023/09/01 07:04:11;;;;;;;18.60;10.48;;;;;;;;;;5011189;28;20053;-61
2023/09/01 07:06:38;;;;;;;18.70;10.30;;;;;;;;;;5009865;28;20171;-62
2023/09/01 07:09:04;;;;;;;18.05;10.85;;;;;;;;;;5011307;28;20049;-62
2023/09/01 07:11:31;;;;;;;20.05;10.45;;;;;;;;;;5042809;28;20033;-60
2023/09/01 07:13:58;;;;;;;18.80;10.25;;;;;;;;;;5010523;28;20106;-61
2023/09/01 07:16:25;;;;;;;17.70;10.07;;;;;;;;;;5009376;28;20985;-62
2023/09/01 07:18:51;;;;;;;20.13;10.02;;;;;;;;;;5009870;28;20696;-59
2023/09/01 07:21:18;;;;;;;17.83;10.27;;;;;;;;;;5010578;28;20128;-61
2023/09/01 07:23:45;;;;;;;21.17;10.63;;;;;;;;;;5010143;28;20064;-63
2023/09/01 07:26:12;;;;;;;15.88;9.48;;;;;;;;;;5010596;28;20705;-62
2023/09/01 07:28:39;;;;;;;16.67;9.70;;;;;;;;;;5010851;28;20766;-60
2023/09/01 07:31:10;;;;;;;16.73;10.02;;;;;;;;;;5021178;28;20053;-61
2023/09/01 07:33:41;;;;;;;16.80;9.93;;;;;;;;;;5012600;28;20588;-62
2023/09/01 07:36:11;;;;;;;18.77;10.20;;;;;;;;;;5013105;28;20106;-62
2023/09/01 07:38:38;;;;;;;17.08;9.48;;;;;;;;;;5008759;28;20566;-60
2023/09/01 07:41:05;;;;;;;18.00;8.88;;;;;;;;;;5009860;28;20129;-63
2023/09/01 07:43:32;;;;;;;20.52;10.07;;;;;;;;;;5010879;28;20045;-62
2023/09/01 07:45:58;;;;;;;18.17;9.48;;;;;;;;;;5011709;28;20045;-62
2023/09/01 07:48:25;;;;;;;18.58;9.40;;;;;;;;;;5011380;28;20430;-61
2023/09/01 07:50:52;;;;;;;16.17;9.18;;;;;;;;;;5011914;28;20522;-62
2023/09/01 07:53:18;;;;;;;17.20;9.45;;;;;;;;;;5012506;28;20124;-62
2023/09/01 07:55:45;;;;;;;15.82;8.80;;;;;;;;;;5041445;28;20065;-63
2023/09/01 07:58:12;;;;;;;15.15;9.15;;;;;;;;;;5011380;28;20076;-63
2023/09/01 08:00:40;;;;;;;16.70;8.70;;;;;;;;;;5009095;28;20164;-62
2023/09/01 08:03:10;;;;;;;16.80;9.00;;;;;;;;;;5008021;28;20033;-60
2023/09/01 08:05:39;;;;;;;14.50;7.60;;;;;;;;;;5009466;28;20040;-63
2023/09/01 08:08:06;;;;;;;14.98;8.40;;;;;;;;;;5010111;28;20052;-62
2023/09/01 08:10:33;;;;;;;14.85;8.27;;;;;;;;;;5009896;28;20048;-63
2023/09/01 08:13:00;;;;;;;14.65;8.52;;;;;;;;;;5005332;28;20059;-59
2023/09/01 08:15:26;;;;;;;14.35;8.20;;;;;;;;;;5030981;28;20033;-63
2023/09/01 08:17:54;;;;;;;13.57;7.65;;;;;;;;;;5031475;28;20033;-60
2023/09/01 08:20:22;;;;;;;13.43;8.40;;;;;;;;;;5023530;28;20034;-61
2023/09/01 08:22:48;;;;;;;15.82;7.80;;;;;;;;;;5018787;28;20630;-62
2023/09/01 08:25:15;;;;;;;13.60;8.27;;;;;;;;;;5010497;28;20042;-62
2023/09/01 08:27:42;;;;;;;18.55;8.75;;;;;;;;;;5013025;28;20506;-62
2023/09/01 08:30:09;;;;;;;13.52;7.95;;;;;;;;;;5014260;28;20758;-63
2023/09/01 08:32:36;;;;;;;16.05;8.73;;;;;;;;;;5009716;28;20041;-63
2023/09/01 08:35:03;;;;;;;13.43;7.25;;;;;;;;;;5010278;28;20042;-63
2023/09/01 08:37:30;;;;;;;12.10;7.10;;;;;;;;;;5017574;28;20045;-63
2023/09/01 08:39:57;;;;;;;13.57;7.00;;;;;;;;;;5033268;28;20691;-62
2023/09/01 08:42:25;;;;;;;12.05;7.30;;;;;;;;;;5018929;28;20051;-62
2023/09/01 08:44:53;;;;;;;12.60;7.53;;;;;;;;;;5021277;28;20090;-62
2023/09/01 08:47:23;;;;;;;14.25;7.75;;;;;;;;;;5013141;28;20041;-63
2023/09/01 08:49:50;;;;;;;15.05;7.35;;;;;;;;;;5009387;28;20065;-61
2023/09/01 08:52:19;;;;;;;15.57;7.85;;;;;;;;;;5012994;28;20049;-63
2023/09/01 08:54:46;;;;;;;14.70;7.82;;;;;;;;;;5044093;28;20498;-62
2023/09/01 08:57:13;;;;;;;12.38;7.25;;;;;;;;;;5019659;28;20044;-61
2023/09/01 08:59:39;;;;;;;14.68;7.55;;;;;;;;;;5014320;28;20041;-62
2023/09/01 09:02:07;;;;;;;11.68;6.70;;;;;;;;;;5013565;28;20064;-63
2023/09/01 09:04:35;;;;;;;12.43;6.95;;;;;;;;;;5012164;28;20088;-65
2023/09/01 09:07:17;;;;;;;12.23;7.53;;;;;;;;;;5011685;28;20063;-62
2023/09/01 09:09:50;;;;;;;15.38;7.68;;;;;;;;;;5015533;28;21839;-63
2023/09/01 09:12:18;;;;;;;11.05;6.85;;;;;;;;;;5033756;28;20067;-61
2023/09/01 09:14:50;;;;;;;13.32;7.35;;;;;;;;;;5033438;28;20036;-64
2023/09/01 09:17:19;;;;;;;13.90;7.93;;;;;;;;;;5033244;28;20041;-64
2023/09/01 09:20:00;;;;;;;16.80;7.68;;;;;;;;;;5033608;28;20051;-64
2023/09/01 09:22:26;;;;;;;15.15;7.47;;;;;;;;;;5032980;28;20132;-62
2023/09/01 09:24:53;;;;;;;13.07;7.13;;;;;;;;;;5034716;28;20099;-61
2023/09/01 09:27:22;;;;;;;13.52;6.97;;;;;;;;;;5033858;28;20045;-61
2023/09/01 09:29:49;;;;;;;13.77;7.53;;;;;;;;;;5047431;28;20801;-63
2023/09/01 09:32:20;;;;;;;11.65;7.13;;;;;;;;;;5033870;28;22016;-61
2023/09/01 09:35:07;;;;;;;12.77;7.10;;;;;;;;;;5032054;28;20041;-61
2023/09/01 09:37:37;;;;;;;12.68;7.30;;;;;;;;;;5031120;28;20547;-63
2023/09/01 09:40:11;;;;;;;12.88;7.47;;;;;;;;;;5033606;28;20453;-63
2023/09/01 09:42:38;;;;;;;14.25;7.22;;;;;;;;;;5032526;28;20715;-62
2023/09/01 09:45:06;;;;;;;13.20;7.85;;;;;;;;;;5034574;28;20048;-61
2023/09/01 09:47:33;;;;;;;12.63;6.97;;;;;;;;;;5034153;28;20127;-63
2023/09/01 09:50:02;;;;;;;14.82;7.28;;;;;;;;;;5036102;28;20037;-62
2023/09/01 09:52:31;;;;;;;16.27;7.93;;;;;;;;;;5034964;28;20151;-62
2023/09/01 09:55:01;;;;;;;13.88;7.93;;;;;;;;;;5034236;28;20288;-61
2023/09/01 09:57:28;;;;;;;14.73;7.63;;;;;;;;;;5033566;28;20495;-62
2023/09/01 10:00:10;;;;;;;12.85;7.32;;;;;;;;;;5030057;28;20041;-62
2023/09/01 10:02:43;;;;;;;14.35;7.90;;;;;;;;;;5032547;28;20437;-62
2023/09/01 10:05:11;;;;;;;17.10;7.55;;;;;;;;;;5017492;28;20524;-62
2023/09/01 10:07:37;;;;;;;11.68;7.30;;;;;;;;;;5039956;28;20051;-62
2023/09/01 10:10:05;;;;;;;12.63;7.65;;;;;;;;;;5011978;28;20065;-61
2023/09/01 10:12:32;;;;;;;13.93;7.60;;;;;;;;;;5010208;28;20042;-61
2023/09/01 10:14:58;;;;;;;16.58;7.95;;;;;;;;;;5020544;28;20037;-64
2023/09/01 10:17:26;;;;;;;13.20;7.97;;;;;;;;;;5007587;28;20052;-62
2023/09/01 10:19:54;;;;;;;15.38;8.77;;;;;;;;;;5011642;28;20069;-65
2023/09/01 10:22:21;;;;;;;13.45;8.75;;;;;;;;;;5011934;28;20158;-62
2023/09/01 10:25:06;;;;;;;16.42;8.55;;;;;;;;;;5011652;28;20061;-62
2023/09/01 10:27:33;;;;;;;19.05;10.05;;;;;;;;;;5011251;28;20037;-62
2023/09/01 10:29:59;;;;;;;16.42;9.13;;;;;;;;;;5012855;28;20128;-63
2023/09/01 10:32:28;;;;;;;16.75;9.27;;;;;;;;;;5020305;28;20201;-62
2023/09/01 10:34:56;;;;;;;17.67;9.43;;;;;;;;;;5028365;28;20394;-60
2023/09/01 10:37:27;;;;;;;19.98;10.18;;;;;;;;;;5011194;28;20350;-60
2023/09/01 10:39:53;;;;;;;17.73;10.70;;;;;;;;;;5031229;28;20045;-63
2023/09/01 10:42:39;;;;;;;20.08;10.48;;;;;;;;;;5011965;28;20062;-62
2023/09/01 10:45:06;;;;;;;18.58;11.23;;;;;;;;;;5020100;28;20092;-62
2023/09/01 10:47:32;;;;;;;19.05;10.52;;;;;;;;;;5039802;28;20041;-64
2023/09/01 10:50:00;;;;;;;21.02;12.02;;;;;;;;;;5011933;28;20754;-61
2023/09/01 10:52:31;;;;;;;19.15;11.65;;;;;;;;;;5019495;28;20052;-63
2023/09/01 10:55:16;;;;;;;19.92;12.02;;;;;;;;;;5008380;28;20203;-63
2023/09/01 10:57:53;;;;;;;23.15;12.68;;;;;;;;;;5006556;28;20065;-63
2023/09/01 11:00:31;;;;;;;22.67;13.25;;;;;;;;;;5006749;28;20064;-62
2023/09/01 11:03:16;;;;;;;24.65;13.85;;;;;;;;;;5026386;28;20045;-61
2023/09/01 11:05:43;;;;;;;25.63;14.27;;;;;;;;;;5024558;28;20551;-61
2023/09/01 11:08:10;;;;;;;25.50;14.57;;;;;;;;;;5027746;28;20803;-62
2023/09/01 11:10:38;;;;;;;25.38;15.25;;;;;;;;;;5010541;28;20040;-62
2023/09/01 11:13:20;;;;;;;26.00;15.85;;;;;;;;;;5027870;28;20037;-59
2023/09/01 11:15:47;;;;;;;30.23;16.80;;;;;;;;;;5026056;28;20098;-63
2023/09/01 11:18:19;;;;;;;29.98;16.80;;;;;;;;;;5026887;28;20045;-62
2023/09/01 11:20:47;;;;;;;29.95;16.75;;;;;;;;;;5026713;28;20626;-62
2023/09/01 11:23:24;;;;;;;30.27;17.17;;;;;;;;;;5027960;28;20051;-63
2023/09/01 11:25:57;;;;;;;28.63;17.15;;;;;;;;;;5026614;28;20039;-62
2023/09/01 11:28:24;;;;;;;30.73;17.98;;;;;;;;;;5029896;28;20041;-62
2023/09/01 11:31:03;;;;;;;29.25;17.45;;;;;;;;;;5031236;28;20045;-61
2023/09/01 11:33:38;;;;;;;28.85;17.88;;;;;;;;;;5021922;28;20034;-61
2023/09/01 11:36:11;;;;;;;29.30;18.10;;;;;;;;;;5009719;28;20049;-63
2023/09/01 11:38:37;;;;;;;;;;;;;;;;;;5011202;28;20071;-63
2023/09/01 11:41:04;;;;;;;31.55;18.50;;;;;;;;;;5011706;28;19921;-64
2023/09/01 11:43:31;;;;;;;36.78;19.85;;;;;;;;;;5011039;28;20045;-62
2023/09/01 11:45:58;;;;;;;36.67;19.58;;;;;;;;;;5010618;28;20043;-60
2023/09/01 11:48:25;;;;;;;34.78;19.92;;;;;;;;;;5011415;28;20167;-61
2023/09/01 11:50:55;;;;;;;32.35;19.30;;;;;;;;;;5039498;28;20473;-61
2023/09/01 11:53:25;;;;;;;33.60;19.13;;;;;;;;;;5023965;28;20589;-62
2023/09/01 11:55:57;;;;;;;34.95;20.17;;;;;;;;;;5044876;28;20678;-60
2023/09/01 11:58:23;;;;;;;36.05;19.80;;;;;;;;;;5030015;28;20095;-62
2023/09/01 12:00:50;;;;;;;35.35;19.73;;;;;;;;;;5031602;28;20398;-61
2023/09/01 12:03:23;;;;;;;37.53;20.63;;;;;;;;;;5030784;28;20556;-60
2023/09/01 12:05:49;;;;;;;33.45;19.55;;;;;;;;;;5022876;28;20052;-61
2023/09/01 12:08:17;;;;;;;35.63;19.75;;;;;;;;;;5030541;28;20671;-61
2023/09/01 12:10:44;;;;;;;34.67;20.33;;;;;;;;;;5042218;28;20037;-60
2023/09/01 12:13:11;;;;;;;33.85;19.67;;;;;;;;;;5038214;28;20449;-61
2023/09/01 12:15:56;;;;;;;34.65;20.63;;;;;;;;;;5018606;28;20600;-59
2023/09/01 12:18:27;;;;;;;33.63;19.38;;;;;;;;;;5020841;28;20043;-66
2023/09/01 12:20:53;;;;;;;32.35;20.08;;;;;;;;;;5035071;28;20037;-62
2023/09/01 12:23:27;;;;;;;34.72;20.40;;;;;;;;;;5052380;28;20037;-62
2023/09/01 12:25:55;;;;;;;38.35;21.85;;;;;;;;;;5031737;28;20037;-61
2023/09/01 12:28:22;;;;;;;37.47;22.15;;;;;;;;;;5035703;28;20041;-62
2023/09/01 12:30:48;;;;;;;36.70;21.38;;;;;;;;;;5034224;28;20060;-63
2023/09/01 12:33:15;;;;;;;37.38;22.25;;;;;;;;;;5051407;28;20051;-63
2023/09/01 12:35:42;;;;;;;39.78;22.17;;;;;;;;;;5023742;28;20041;-63
2023/09/01 12:38:08;;;;;;;39.72;22.17;;;;;;;;;;5028277;28;20653;-62
2023/09/01 12:40:35;;;;;;;40.15;22.00;;;;;;;;;;5014040;28;20056;-63
2023/09/01 12:43:02;;;;;;;37.63;21.30;;;;;;;;;;5013079;28;20449;-62
2023/09/01 12:45:32;;;;;;;40.38;21.00;;;;;;;;;;5009896;28;20081;-64
2023/09/01 12:48:02;;;;;;;39.60;21.23;;;;;;;;;;5020453;28;20505;-64
2023/09/01 12:50:29;;;;;;;39.17;22.05;;;;;;;;;;5014149;28;20103;-63
2023/09/01 12:53:15;;;;;;;37.72;22.05;;;;;;;;;;5000542;28;20121;-63
2023/09/01 12:55:42;;;;;;;39.80;22.48;;;;;;;;;;4991648;28;20127;-64
2023/09/01 12:58:09;;;;;;;39.70;23.05;;;;;;;;;;4999705;28;20065;-63
2023/09/01 13:00:36;;;;;;;40.88;22.00;;;;;;;;;;4998064;28;20137;-63
2023/09/01 13:03:03;;;;;;;41.05;23.13;;;;;;;;;;5000429;28;20041;-64
2023/09/01 13:05:30;;;;;;;39.97;22.30;;;;;;;;;;5000658;28;20239;-66
2023/09/01 13:07:59;;;;;;;38.20;22.98;;;;;;;;;;4996060;28;20044;-65
2023/09/01 13:10:26;;;;;;;42.17;23.17;;;;;;;;;;4999089;28;20038;-67
2023/09/01 13:12:52;;;;;;;39.97;23.33;;;;;;;;;;4999986;28;20549;-65
2023/09/01 13:15:19;;;;;;;45.40;22.90;;;;;;;;;;4990212;28;20124;-65
2023/09/01 13:17:47;;;;;;;40.47;21.23;;;;;;;;;;4989573;28;20050;-64
2023/09/01 13:20:14;;;;;;;36.30;19.27;;;;;;;;;;4998651;28;21407;-63
2023/09/01 13:22:41;;;;;;;35.03;18.60;;;;;;;;;;5018324;28;20368;-63
2023/09/01 13:25:08;;;;;;;32.03;19.08;;;;;;;;;;5018992;28;20777;-62
2023/09/01 13:27:35;;;;;;;30.25;18.02;;;;;;;;;;5001709;28;21139;-62
2023/09/01 13:30:02;;;;;;;32.47;18.63;;;;;;;;;;5022522;28;20056;-62
2023/09/01 13:32:28;;;;;;;31.08;18.95;;;;;;;;;;5032177;28;20033;-61
2023/09/01 13:34:55;;;;;;;29.73;18.25;;;;;;;;;;5033669;28;20672;-65
2023/09/01 13:37:22;;;;;;;37.22;19.73;;;;;;;;;;5033168;28;20094;-62
2023/09/01 13:39:53;;;;;;;31.77;17.92;;;;;;;;;;5045160;28;20041;-63
2023/09/01 13:42:19;;;;;;;33.17;18.40;;;;;;;;;;5021883;28;20136;-61
2023/09/01 13:44:46;;;;;;;32.17;18.73;;;;;;;;;;5013554;28;20059;-62
2023/09/01 13:47:12;;;;;;;29.48;18.35;;;;;;;;;;5014145;28;20049;-64
2023/09/01 13:49:39;;;;;;;33.35;18.83;;;;;;;;;;5013389;28;20041;-64
2023/09/01 13:52:06;;;;;;;35.88;19.17;;;;;;;;;;5020783;28;20045;-60
2023/09/01 13:54:32;;;;;;;31.83;18.70;;;;;;;;;;5013506;28;20121;-64
2023/09/01 13:56:59;;;;;;;28.58;18.23;;;;;;;;;;5012187;28;20041;-61
2023/09/01 13:59:26;;;;;;;31.40;18.35;;;;;;;;;;5044289;28;20072;-62
2023/09/01 14:01:52;;;;;;;32.55;18.60;;;;;;;;;;5012291;28;20049;-62
2023/09/01 14:04:19;;;;;;;31.10;17.98;;;;;;;;;;5011109;28;20937;-62
2023/09/01 14:06:45;;;;;;;32.15;19.20;;;;;;;;;;5020800;28;20045;-65
2023/09/01 14:09:12;;;;;;;32.67;19.48;;;;;;;;;;5020095;28;20041;-61
2023/09/01 14:11:39;;;;;;;32.53;18.38;;;;;;;;;;5042664;28;20132;-61
2023/09/01 14:14:05;;;;;;;32.85;18.85;;;;;;;;;;5017812;28;20033;-63
2023/09/01 14:16:32;;;;;;;33.50;18.55;;;;;;;;;;5014009;28;20048;-62
2023/09/01 14:18:58;;;;;;;33.40;19.38;;;;;;;;;;5039494;28;20064;-64
2023/09/01 14:21:25;;;;;;;31.50;19.25;;;;;;;;;;5024834;28;20041;-64
2023/09/01 14:23:52;;;;;;;32.50;18.30;;;;;;;;;;5025184;28;20440;-62
2023/09/01 14:26:18;;;;;;;31.55;18.65;;;;;;;;;;5009727;28;20187;-62